createdAt,value
2023-05-22T00:00:54.376Z,3.50
2023-05-22T00:03:57.503Z,4.53
2023-05-22T00:07:00.601Z,3.67
2023-05-22T00:10:03.074Z,5.90
2023-05-22T00:13:05.530Z,3.80
2023-05-22T00:16:08.312Z,4.60
2023-05-22T00:19:10.686Z,4.55
2023-05-22T00:22:13.326Z,5.38
2023-05-22T00:25:16.311Z,3.63
2023-05-22T00:28:19.028Z,4.00
2023-05-22T00:31:22.484Z,5.30
2023-05-22T00:34:25.405Z,4.60
2023-05-22T00:37:28.294Z,4.30
2023-05-22T00:40:31.194Z,3.83
2023-05-22T00:43:34.590Z,4.32
2023-05-22T00:46:37.579Z,5.70
2023-05-22T00:49:40.648Z,4.25
2023-05-22T00:52:42.928Z,4.20
2023-05-22T00:55:46.266Z,5.45
2023-05-22T00:58:49.592Z,5.25
2023-05-22T01:01:52.519Z,5.55
2023-05-22T01:04:55.538Z,4.82
2023-05-22T01:07:58.888Z,4.15
2023-05-22T01:11:02.185Z,5.05
2023-05-22T01:14:04.526Z,3.92
2023-05-22T01:17:07.277Z,3.97
2023-05-22T01:20:09.777Z,4.20
2023-05-22T01:23:12.985Z,4.90
2023-05-22T01:26:15.969Z,3.92
2023-05-22T01:29:18.536Z,4.13
2023-05-22T01:32:22.760Z,4.68
2023-05-22T01:35:26.875Z,5.45
2023-05-22T01:38:29.884Z,4.15
2023-05-22T01:41:34.718Z,4.22
2023-05-22T01:44:38.533Z,5.03
2023-05-22T01:47:41.670Z,4.88
2023-05-22T01:50:44.670Z,4.47
2023-05-22T01:53:47.986Z,4.07
2023-05-22T01:56:50.547Z,5.15
2023-05-22T01:59:52.890Z,5.18
2023-05-22T02:02:55.581Z,5.72
2023-05-22T02:05:58.585Z,5.88
2023-05-22T02:09:02.142Z,5.40
2023-05-22T02:12:05.869Z,4.95
2023-05-22T02:15:08.814Z,4.78
2023-05-22T02:18:12.017Z,4.22
2023-05-22T02:21:15.152Z,5.82
2023-05-22T02:24:17.940Z,4.25
2023-05-22T02:27:20.866Z,4.25
2023-05-22T02:30:23.967Z,5.50
2023-05-22T02:33:28.707Z,4.53
2023-05-22T02:36:31.926Z,4.13
2023-05-22T02:39:35.438Z,5.20
2023-05-22T02:42:38.703Z,4.20
2023-05-22T02:45:41.723Z,4.13
2023-05-22T02:48:44.080Z,4.78
2023-05-22T02:51:46.416Z,4.75
2023-05-22T02:54:49.101Z,4.55
2023-05-22T02:57:52.124Z,5.30
2023-05-22T03:00:55.075Z,4.45
2023-05-22T03:03:57.693Z,4.60
2023-05-22T03:07:00.374Z,3.70
2023-05-22T03:10:03.182Z,4.13
2023-05-22T03:13:05.889Z,4.60
2023-05-22T03:16:08.687Z,4.28
2023-05-22T03:19:16.170Z,3.90
2023-05-22T03:22:19.330Z,5.95
2023-05-22T03:25:21.894Z,6.32
2023-05-22T03:28:24.479Z,7.47
2023-05-22T03:31:26.756Z,7.15
2023-05-22T03:34:39.582Z,7.95
2023-05-22T03:37:44.627Z,8.40
2023-05-22T03:40:47.391Z,7.30
2023-05-22T03:43:50.954Z,7.15
2023-05-22T03:46:54.244Z,8.27
2023-05-22T03:49:57.254Z,11.52
2023-05-22T03:52:59.937Z,7.22
2023-05-22T03:56:01.975Z,10.00
2023-05-22T03:59:04.362Z,16.73
2023-05-22T04:02:06.789Z,22.52
2023-05-22T04:05:09.257Z,27.52
2023-05-22T04:08:14.270Z,23.70
2023-05-22T04:11:16.903Z,22.42
2023-05-22T04:14:19.506Z,26.20
2023-05-22T04:17:22.617Z,23.80
2023-05-22T04:20:25.640Z,21.13
2023-05-22T04:23:28.703Z,24.23
2023-05-22T04:26:31.720Z,15.45
2023-05-22T04:29:34.053Z,20.40
2023-05-22T04:32:37.274Z,16.90
2023-05-22T04:35:40.243Z,12.98
2023-05-22T04:38:42.572Z,12.40
2023-05-22T04:41:46.253Z,13.23
2023-05-22T04:44:49.604Z,12.02
2023-05-22T04:47:52.857Z,11.23
2023-05-22T04:50:56.437Z,9.82
2023-05-22T04:53:59.051Z,8.73
2023-05-22T04:57:02.705Z,9.38
2023-05-22T05:00:04.836Z,10.48
2023-05-22T05:03:09.330Z,12.30
2023-05-22T05:06:12.420Z,13.20
2023-05-22T05:09:15.643Z,11.25
2023-05-22T05:12:19.120Z,10.35
2023-05-22T05:15:22.165Z,10.68
2023-05-22T05:18:25.724Z,9.07
2023-05-22T05:21:28.759Z,8.70
2023-05-22T05:24:35.225Z,8.38
2023-05-22T05:27:38.245Z,8.05
2023-05-22T05:30:41.107Z,9.30
2023-05-22T05:34:01.836Z,7.65
2023-05-22T05:37:23.994Z,7.95
2023-05-22T05:40:29.350Z,9.05
2023-05-22T05:43:33.797Z,8.35
2023-05-22T05:46:39.869Z,10.35
2023-05-22T05:49:42.809Z,7.10
2023-05-22T05:52:46.331Z,7.25
2023-05-22T05:55:51.753Z,7.32
2023-05-22T05:58:55.187Z,8.02
2023-05-22T06:02:19.432Z,9.18
2023-05-22T06:05:25.462Z,7.53
2023-05-22T06:08:36.446Z,6.93
2023-05-22T06:11:39.197Z,8.02
2023-05-22T06:14:41.581Z,6.47
2023-05-22T06:17:44.394Z,6.63
2023-05-22T06:20:48.671Z,7.22
2023-05-22T06:23:53.007Z,5.95
2023-05-22T06:26:56.397Z,4.95
2023-05-22T06:29:59.415Z,5.50
2023-05-22T06:33:06.217Z,5.72
2023-05-22T06:36:08.666Z,6.18
2023-05-22T06:39:11.098Z,7.55
2023-05-22T06:42:42.513Z,5.30
2023-05-22T06:46:09.343Z,5.78
2023-05-22T06:49:21.515Z,4.95
2023-05-22T06:52:28.117Z,5.15
2023-05-22T06:55:31.489Z,5.68
2023-05-22T06:58:41.980Z,7.28
2023-05-22T07:01:46.424Z,4.45
2023-05-22T07:04:54.695Z,4.85
2023-05-22T07:08:08.849Z,5.97
2023-05-22T07:11:11.672Z,4.85
2023-05-22T07:14:15.364Z,5.15
2023-05-22T07:17:18.955Z,4.95
2023-05-22T07:20:21.907Z,6.45
2023-05-22T07:23:35.658Z,4.32
2023-05-22T07:26:38.091Z,4.90
2023-05-22T07:29:45.682Z,5.38
2023-05-22T07:32:48.502Z,4.95
2023-05-22T07:35:51.460Z,5.18
2023-05-22T07:38:54.457Z,4.55
2023-05-22T07:41:58.818Z,5.95
2023-05-22T07:45:03.897Z,5.45
2023-05-22T07:48:06.270Z,4.53
2023-05-22T07:51:11.423Z,4.30
2023-05-22T07:54:14.161Z,4.40
2023-05-22T07:57:18.978Z,5.22
2023-05-22T08:00:22.700Z,9.02
2023-05-22T08:03:25.483Z,6.32
2023-05-22T08:06:28.586Z,9.10
2023-05-22T08:09:32.313Z,5.13
2023-05-22T08:12:36.374Z,7.88
2023-05-22T08:15:39.565Z,5.70
2023-05-22T08:18:42.590Z,5.90
2023-05-22T08:21:45.177Z,6.57
2023-05-22T08:24:48.348Z,5.95
2023-05-22T08:27:52.388Z,4.75
2023-05-22T08:30:55.915Z,7.43
2023-05-22T08:33:58.793Z,5.28
2023-05-22T08:37:01.647Z,3.90
2023-05-22T08:40:04.665Z,4.28
2023-05-22T08:43:07.685Z,5.40
2023-05-22T08:46:10.892Z,5.13
2023-05-22T08:49:14.866Z,4.60
2023-05-22T08:52:17.909Z,4.57
2023-05-22T08:55:20.685Z,5.97
2023-05-22T08:58:24.012Z,4.38
2023-05-22T09:01:26.257Z,4.97
2023-05-22T09:04:29.112Z,4.35
2023-05-22T09:07:32.601Z,6.07
2023-05-22T09:10:35.628Z,8.80
2023-05-22T09:13:38.857Z,4.95
2023-05-22T09:16:42.564Z,4.15
2023-05-22T09:19:44.975Z,3.97
2023-05-22T09:22:47.848Z,4.05
2023-05-22T09:25:51.033Z,5.20
2023-05-22T09:28:55.222Z,3.50
2023-05-22T09:31:58.356Z,3.55
2023-05-22T09:35:01.405Z,3.72
2023-05-22T09:38:03.924Z,4.18
2023-05-22T09:41:06.730Z,3.80
2023-05-22T09:44:10.234Z,4.00
2023-05-22T09:47:13.818Z,4.43
2023-05-22T09:50:17.333Z,4.45
2023-05-22T09:53:20.541Z,3.90
2023-05-22T09:56:34.851Z,3.65
2023-05-22T09:59:41.289Z,3.38
2023-05-22T10:02:43.759Z,3.40
2023-05-22T10:05:46.928Z,4.05
2023-05-22T10:08:49.930Z,4.90
2023-05-22T10:11:52.513Z,4.13
2023-05-22T10:14:55.784Z,4.05
2023-05-22T10:17:58.978Z,4.40
2023-05-22T10:21:01.605Z,4.00
2023-05-22T10:24:04.449Z,4.40
2023-05-22T10:27:07.184Z,4.57
2023-05-22T10:30:10.251Z,5.35
2023-05-22T10:33:19.252Z,4.05
2023-05-22T10:36:22.224Z,4.25
2023-05-22T10:39:25.224Z,3.95
2023-05-22T10:42:27.746Z,4.05
2023-05-22T10:45:30.830Z,6.93
2023-05-22T10:48:33.815Z,127.15
2023-05-22T10:51:37.975Z,94.45
2023-05-22T10:54:41.109Z,77.18
2023-05-22T10:57:43.442Z,56.50
2023-05-22T11:00:46.518Z,33.50
2023-05-22T11:03:49.566Z,18.27
2023-05-22T11:06:51.972Z,13.45
2023-05-22T11:09:54.658Z,12.05
2023-05-22T11:12:57.867Z,13.55
2023-05-22T11:16:00.913Z,11.10
2023-05-22T11:19:21.294Z,11.40
2023-05-22T11:22:26.363Z,13.15
2023-05-22T11:25:29.279Z,11.63
2023-05-22T11:28:32.567Z,12.68
2023-05-22T11:31:36.859Z,10.30
2023-05-22T11:34:40.059Z,11.93
2023-05-22T11:37:43.265Z,13.65
2023-05-22T11:40:46.787Z,10.55
2023-05-22T11:43:49.509Z,13.15
2023-05-22T11:46:52.356Z,10.68
2023-05-22T11:49:54.766Z,11.07
2023-05-22T11:52:57.503Z,11.07
2023-05-22T11:56:00.288Z,10.75
2023-05-22T11:59:02.747Z,10.85
2023-05-22T12:02:06.226Z,12.10
2023-05-22T12:05:09.614Z,12.20
2023-05-22T12:08:12.869Z,10.38
2023-05-22T12:11:15.734Z,11.30
2023-05-22T12:14:18.383Z,14.55
2023-05-22T12:17:21.389Z,11.85
2023-05-22T12:20:24.144Z,11.90
2023-05-22T12:23:27.136Z,12.27
2023-05-22T12:26:30.267Z,12.52
2023-05-22T12:29:33.377Z,11.68
2023-05-22T12:32:36.160Z,10.32
2023-05-22T12:35:38.501Z,13.50
2023-05-22T12:38:41.694Z,11.27
2023-05-22T12:41:45.487Z,12.38
2023-05-22T12:44:48.500Z,10.50
2023-05-22T12:47:50.881Z,11.43
2023-05-22T12:50:53.518Z,12.60
2023-05-22T12:53:56.617Z,11.93
2023-05-22T12:56:59.657Z,12.40
2023-05-22T13:00:02.481Z,9.25
2023-05-22T13:03:05.344Z,11.85
2023-05-22T13:06:08.186Z,10.98
2023-05-22T13:09:10.636Z,10.95
2023-05-22T13:12:14.066Z,9.98
2023-05-22T13:15:16.629Z,12.60
2023-05-22T13:18:19.509Z,11.85
2023-05-22T13:21:23.596Z,9.55
2023-05-22T13:24:26.584Z,9.77
2023-05-22T13:27:29.176Z,9.23
2023-05-22T13:30:32.975Z,9.98
2023-05-22T13:33:36.434Z,13.48
2023-05-22T13:36:40.406Z,21.45
2023-05-22T13:39:43.882Z,12.15
2023-05-22T13:42:46.961Z,11.45
2023-05-22T13:45:49.960Z,12.70
2023-05-22T13:48:52.854Z,11.88
2023-05-22T13:51:55.809Z,10.48
2023-05-22T13:54:58.081Z,11.90
2023-05-22T13:58:00.674Z,9.43
2023-05-22T14:01:03.775Z,9.38
2023-05-22T14:04:06.572Z,10.85
2023-05-22T14:07:08.985Z,8.63
2023-05-22T14:10:12.019Z,10.07
2023-05-22T14:13:15.216Z,8.43
2023-05-22T14:16:17.898Z,8.00
2023-05-22T14:19:20.685Z,8.73
2023-05-22T14:22:23.740Z,6.13
2023-05-22T14:25:27.517Z,6.35
2023-05-22T14:28:30.215Z,10.25
2023-05-22T14:31:33.169Z,9.40
2023-05-22T14:34:36.763Z,8.55
2023-05-22T14:37:39.557Z,9.48
2023-05-22T14:40:42.408Z,9.85
2023-05-22T14:43:46.144Z,17.95
2023-05-22T14:46:49.812Z,9.85
2023-05-22T14:49:55.423Z,9.75
2023-05-22T14:53:00.236Z,8.85
2023-05-22T14:56:03.163Z,7.43
2023-05-22T14:59:05.847Z,9.80
2023-05-22T15:02:09.548Z,6.53
2023-05-22T15:05:12.542Z,8.27
2023-05-22T15:08:15.419Z,9.80
2023-05-22T15:11:17.870Z,9.27
2023-05-22T15:14:20.814Z,8.38
2023-05-22T15:17:23.934Z,9.45
2023-05-22T15:20:27.094Z,7.63
2023-05-22T15:23:30.651Z,5.85
2023-05-22T15:26:33.929Z,6.13
2023-05-22T15:29:37.395Z,6.60
2023-05-22T15:32:39.763Z,5.13
2023-05-22T15:35:42.659Z,6.60
2023-05-22T15:38:45.365Z,6.25
2023-05-22T15:42:02.243Z,5.30
2023-05-22T15:45:09.219Z,6.72
2023-05-22T15:48:12.775Z,5.35
2023-05-22T15:51:15.498Z,8.40
2023-05-22T15:54:18.400Z,5.40
2023-05-22T15:57:21.644Z,6.53
2023-05-22T16:00:24.575Z,6.68
2023-05-22T16:03:27.258Z,6.53
2023-05-22T16:06:30.292Z,6.85
2023-05-22T16:09:33.300Z,6.78
2023-05-22T16:12:36.798Z,3.78
2023-05-22T16:15:40.559Z,4.30
2023-05-22T16:18:43.623Z,4.28
2023-05-22T16:21:45.979Z,3.88
2023-05-22T16:24:48.858Z,3.38
2023-05-22T16:27:51.599Z,2.72
2023-05-22T16:30:54.967Z,3.30
2023-05-22T16:33:57.598Z,3.78
2023-05-22T16:37:00.042Z,6.53
2023-05-22T16:40:02.828Z,4.55
2023-05-22T16:43:05.627Z,3.30
2023-05-22T16:46:09.528Z,4.13
2023-05-22T16:49:12.294Z,4.57
2023-05-22T16:52:15.119Z,4.60
2023-05-22T16:55:18.331Z,4.32
2023-05-22T16:58:21.983Z,4.85
2023-05-22T17:01:25.053Z,4.68
2023-05-22T17:04:28.068Z,5.43
2023-05-22T17:07:31.256Z,4.18
2023-05-22T17:10:34.322Z,4.72
2023-05-22T17:13:37.482Z,5.28
2023-05-22T17:16:41.834Z,4.13
2023-05-22T17:19:45.375Z,5.20
2023-05-22T17:22:48.699Z,4.75
2023-05-22T17:25:52.111Z,4.32
2023-05-22T17:28:55.199Z,4.22
2023-05-22T17:31:58.398Z,4.28
2023-05-22T17:35:01.764Z,6.45
2023-05-22T17:38:04.795Z,4.32
2023-05-22T17:41:07.577Z,4.32
2023-05-22T17:44:10.298Z,4.05
2023-05-22T17:47:13.395Z,6.25
2023-05-22T17:50:16.369Z,5.07
2023-05-22T17:53:18.778Z,5.03
2023-05-22T17:56:21.792Z,4.10
2023-05-22T17:59:24.714Z,4.30
2023-05-22T18:02:28.097Z,4.32
2023-05-22T18:05:31.292Z,4.50
2023-05-22T18:08:34.749Z,4.65
2023-05-22T18:11:37.201Z,4.75
2023-05-22T18:14:39.920Z,3.55
2023-05-22T18:17:42.870Z,4.80
2023-05-22T18:20:46.052Z,5.70
2023-05-22T18:23:49.536Z,6.63
2023-05-22T18:26:52.329Z,5.95
2023-05-22T18:29:55.212Z,6.93
2023-05-22T18:32:57.969Z,4.60
2023-05-22T18:36:01.088Z,5.13
2023-05-22T18:39:03.713Z,5.75
2023-05-22T18:42:06.582Z,6.78
2023-05-22T18:45:09.978Z,5.13
2023-05-22T18:48:12.715Z,5.35
2023-05-22T18:51:15.657Z,6.03
2023-05-22T18:54:18.522Z,5.18
2023-05-22T18:57:21.308Z,6.38
2023-05-22T19:00:24.010Z,6.15
2023-05-22T19:03:26.990Z,8.00
2023-05-22T19:06:29.937Z,6.25
2023-05-22T19:09:32.805Z,8.35
2023-05-22T19:12:35.882Z,6.90
2023-05-22T19:15:38.957Z,6.93
2023-05-22T19:18:41.858Z,8.07
2023-05-22T19:21:43.946Z,6.18
2023-05-22T19:24:46.802Z,6.05
2023-05-22T19:27:49.835Z,4.95
2023-05-22T19:30:53.268Z,5.63
2023-05-22T19:33:56.762Z,4.15
2023-05-22T19:36:59.593Z,3.60
2023-05-22T19:40:02.199Z,5.10
2023-05-22T19:43:05.210Z,4.88
2023-05-22T19:46:09.093Z,5.70
2023-05-22T19:49:12.232Z,3.60
2023-05-22T19:52:14.794Z,6.95
2023-05-22T19:55:18.330Z,5.93
2023-05-22T19:58:20.993Z,3.60
2023-05-22T20:01:24.300Z,3.35
2023-05-22T20:04:27.923Z,3.78
2023-05-22T20:07:30.539Z,3.90
2023-05-22T20:10:33.509Z,4.25
2023-05-22T20:13:36.273Z,2.38
2023-05-22T20:16:38.563Z,3.45
2023-05-22T20:19:41.718Z,2.97
2023-05-22T20:22:44.465Z,4.43
2023-05-22T20:25:47.972Z,3.05
2023-05-22T20:28:51.644Z,3.42
2023-05-22T20:31:55.275Z,2.47
2023-05-22T20:34:58.616Z,2.33
2023-05-22T20:38:02.564Z,3.13
2023-05-22T20:41:05.939Z,2.78
2023-05-22T20:44:09.326Z,2.90
2023-05-22T20:47:12.359Z,3.00
2023-05-22T20:50:15.230Z,3.42
2023-05-22T20:53:18.519Z,3.42
2023-05-22T20:56:21.882Z,2.85
2023-05-22T20:59:24.911Z,2.92
2023-05-22T21:02:27.803Z,3.17
2023-05-22T21:05:30.883Z,3.05
2023-05-22T21:08:33.459Z,3.53
2023-05-22T21:11:36.957Z,3.40
2023-05-22T21:14:39.632Z,2.97
2023-05-22T21:17:42.406Z,2.72
2023-05-22T21:20:45.157Z,3.63
2023-05-22T21:23:47.937Z,3.08
2023-05-22T21:26:51.666Z,3.92
2023-05-22T21:29:54.643Z,2.20
2023-05-22T21:32:56.972Z,2.75
2023-05-22T21:35:59.325Z,2.75
2023-05-22T21:39:02.223Z,2.75
2023-05-22T21:42:04.314Z,2.95
2023-05-22T21:45:07.536Z,2.90
2023-05-22T21:48:10.674Z,2.53
2023-05-22T21:51:13.785Z,3.13
2023-05-22T21:54:17.301Z,2.85
2023-05-22T21:57:21.222Z,2.47
2023-05-22T22:00:24.262Z,2.53
2023-05-22T22:03:27.356Z,2.40
2023-05-22T22:06:30.457Z,3.78
2023-05-22T22:09:32.792Z,2.70
2023-05-22T22:12:35.909Z,2.33
2023-05-22T22:15:39.006Z,2.15
2023-05-22T22:18:41.698Z,2.97
2023-05-22T22:21:45.309Z,2.13
2023-05-22T22:24:48.503Z,2.42
2023-05-22T22:27:51.593Z,2.53
2023-05-22T22:30:54.383Z,3.45
2023-05-22T22:33:57.516Z,2.67
2023-05-22T22:37:00.992Z,2.60
2023-05-22T22:40:04.488Z,1.98
2023-05-22T22:43:06.866Z,2.47
2023-05-22T22:46:10.059Z,2.47
2023-05-22T22:49:12.645Z,2.15
2023-05-22T22:52:15.331Z,2.22
2023-05-22T22:55:18.635Z,1.98
2023-05-22T22:58:21.024Z,3.13
2023-05-22T23:01:23.545Z,2.88
2023-05-22T23:04:26.511Z,2.45
2023-05-22T23:07:29.444Z,4.15
2023-05-22T23:10:32.541Z,2.92
2023-05-22T23:13:35.914Z,3.15
2023-05-22T23:16:39.004Z,3.72
2023-05-22T23:19:41.676Z,2.33
2023-05-22T23:22:44.692Z,2.67
2023-05-22T23:25:48.400Z,3.25
2023-05-22T23:28:52.375Z,3.22
2023-05-22T23:31:55.988Z,2.95
2023-05-22T23:34:59.850Z,3.10
2023-05-22T23:38:02.484Z,3.13
2023-05-22T23:41:05.410Z,4.38
2023-05-22T23:44:08.145Z,4.35
2023-05-22T23:47:10.600Z,3.35
2023-05-22T23:50:14.187Z,4.72
2023-05-22T23:53:16.581Z,2.88
2023-05-22T23:56:19.913Z,5.03
2023-05-22T23:59:23.351Z,4.38
